createdAt,value
2019-04-27T00:00:43.379Z,20.88
2019-04-27T00:05:43.356Z,20.58
2019-04-27T00:10:48.330Z,20.35
2019-04-27T00:15:47.922Z,20.12
2019-04-27T00:20:49.758Z,19.93
2019-04-27T00:25:46.779Z,19.91
2019-04-27T00:30:44.318Z,19.67
2019-04-27T00:35:53.929Z,19.45
2019-04-27T00:40:55.743Z,19.30
2019-04-27T00:45:53.718Z,19.10
2019-04-27T00:50:50.871Z,19.10
2019-04-27T00:55:49.723Z,19.01
2019-04-27T01:00:54.386Z,18.63
2019-04-27T01:05:53.048Z,18.67
2019-04-27T01:10:50.226Z,18.54
2019-04-27T01:15:47.148Z,18.46
2019-04-27T01:20:44.129Z,18.41
2019-04-27T01:25:45.858Z,18.47
2019-04-27T01:30:44.727Z,18.53
2019-04-27T01:35:41.667Z,18.30
2019-04-27T01:40:39.543Z,18.28
2019-04-27T01:45:36.902Z,18.30
2019-04-27T01:50:34.455Z,18.49
2019-04-27T01:55:31.382Z,18.41
2019-04-27T02:00:39.594Z,18.47
2019-04-27T02:05:56.381Z,18.53
2019-04-27T02:10:53.317Z,18.43
2019-04-27T02:15:50.392Z,18.37
2019-04-27T02:20:49.043Z,18.39
2019-04-27T02:25:46.777Z,18.46
2019-04-27T02:31:02.218Z,18.46
2019-04-27T02:36:00.389Z,18.54
2019-04-27T02:41:00.090Z,18.58
2019-04-27T02:45:57.332Z,18.53
2019-04-27T02:50:56.242Z,18.63
2019-04-27T02:55:53.272Z,18.55
2019-04-27T03:00:50.322Z,18.43
2019-04-27T03:05:50.062Z,18.42
2019-04-27T03:10:46.293Z,18.30
2019-04-27T03:15:46.304Z,18.25
2019-04-27T03:20:43.312Z,18.18
2019-04-27T03:25:52.317Z,18.09
2019-04-27T03:30:52.075Z,18.05
2019-04-27T03:35:52.583Z,17.91
2019-04-27T03:40:50.457Z,17.77
2019-04-27T03:45:46.567Z,17.77
2019-04-27T03:50:54.315Z,17.53
2019-04-27T03:55:53.085Z,17.54
2019-04-27T04:00:52.207Z,17.55
2019-04-27T04:05:51.907Z,17.55
2019-04-27T04:10:52.116Z,17.73
2019-04-27T04:15:52.230Z,17.89
2019-04-27T04:20:50.585Z,18.12
2019-04-27T04:25:50.018Z,18.41
2019-04-27T04:30:46.622Z,18.64
2019-04-27T04:35:43.569Z,18.82
2019-04-27T04:40:44.899Z,19.01
2019-04-27T04:45:50.314Z,19.04
2019-04-27T04:50:49.958Z,19.18
2019-04-27T04:55:46.475Z,19.53
2019-04-27T05:00:43.419Z,19.77
2019-04-27T05:05:41.372Z,19.89
2019-04-27T05:10:39.540Z,20.19
2019-04-27T05:15:36.623Z,20.46
2019-04-27T05:20:41.177Z,20.88
2019-04-27T05:25:39.039Z,21.19
2019-04-27T05:30:36.197Z,21.42
2019-04-27T05:35:33.237Z,21.85
2019-04-27T05:40:31.180Z,22.13
2019-04-27T05:45:59.390Z,22.69
2019-04-27T05:50:58.845Z,23.35
2019-04-27T05:55:52.398Z,23.81
2019-04-27T06:00:49.603Z,23.86
2019-04-27T06:05:46.636Z,24.01
2019-04-27T06:10:43.624Z,24.27
2019-04-27T06:15:40.774Z,23.78
2019-04-27T06:20:50.480Z,23.68
2019-04-27T06:25:39.367Z,23.31
2019-04-27T06:30:36.535Z,23.08
2019-04-27T06:35:33.576Z,23.05
2019-04-27T06:40:30.652Z,23.08
2019-04-27T06:45:28.578Z,22.77
2019-04-27T06:50:25.717Z,22.73
2019-04-27T06:55:22.755Z,22.80
2019-04-27T07:00:19.695Z,22.99
2019-04-27T07:05:16.786Z,22.77
2019-04-27T07:10:13.720Z,22.68
2019-04-27T07:15:10.843Z,22.71
2019-04-27T07:20:09.069Z,22.69
2019-04-27T07:25:06.579Z,22.63
2019-04-27T07:30:06.226Z,22.75
2019-04-27T07:35:04.889Z,22.68
2019-04-27T07:40:01.940Z,22.65
2019-04-27T07:45:11.354Z,22.56
2019-04-27T07:50:09.693Z,22.60
2019-04-27T07:55:08.715Z,22.47
2019-04-27T08:00:06.909Z,22.75
2019-04-27T08:05:04.809Z,22.86
2019-04-27T08:10:01.980Z,22.96
2019-04-27T08:15:00.056Z,22.99
2019-04-27T08:19:57.254Z,23.26
2019-04-27T08:24:54.259Z,23.36
2019-04-27T08:30:05.496Z,23.57
2019-04-27T08:35:05.438Z,23.62
2019-04-27T08:40:06.659Z,23.83
2019-04-27T08:45:05.116Z,23.94
2019-04-27T08:50:02.163Z,23.91
2019-04-27T08:54:59.496Z,24.24
2019-04-27T08:59:56.728Z,24.38
2019-04-27T09:04:53.750Z,24.82
2019-04-27T09:09:52.577Z,25.01
2019-04-27T09:14:53.854Z,25.97
2019-04-27T09:20:02.060Z,26.09
2019-04-27T09:24:59.519Z,25.23
2019-04-27T09:29:56.658Z,25.05
2019-04-27T09:34:53.595Z,24.84
2019-04-27T09:39:50.519Z,24.61
2019-04-27T09:44:47.730Z,23.82
2019-04-27T09:49:46.094Z,23.67
2019-04-27T09:54:43.260Z,23.60
2019-04-27T09:59:40.229Z,22.98
2019-04-27T10:04:37.233Z,22.00
2019-04-27T10:09:34.429Z,21.70
2019-04-27T10:14:31.567Z,21.06
2019-04-27T10:19:32.923Z,20.59
2019-04-27T10:24:27.445Z,20.45
2019-04-27T10:29:26.735Z,20.56
2019-04-27T10:34:23.647Z,20.55
2019-04-27T10:39:20.697Z,20.30
2019-04-27T10:44:17.734Z,19.95
2019-04-27T10:49:15.902Z,19.78
2019-04-27T10:54:13.096Z,19.41
2019-04-27T10:59:10.165Z,19.68
2019-04-27T11:04:17.869Z,19.57
2019-04-27T11:09:16.322Z,19.82
2019-04-27T11:14:13.630Z,20.07
2019-04-27T11:19:10.680Z,20.27
2019-04-27T11:24:08.306Z,20.43
2019-04-27T11:29:08.082Z,20.36
2019-04-27T11:34:06.667Z,20.71
2019-04-27T11:39:10.915Z,21.10
2019-04-27T11:44:07.893Z,21.70
2019-04-27T11:49:06.680Z,22.67
2019-04-27T11:54:03.862Z,23.54
2019-04-27T11:59:01.471Z,23.91
2019-04-27T12:03:58.500Z,23.57
2019-04-27T12:08:55.527Z,23.35
2019-04-27T12:13:52.485Z,23.17
2019-04-27T12:18:50.392Z,22.94
2019-04-27T12:23:47.353Z,22.43
2019-04-27T12:28:49.268Z,22.65
2019-04-27T12:33:46.236Z,22.83
2019-04-27T12:38:43.336Z,23.07
2019-04-27T12:43:40.289Z,22.78
2019-04-27T12:48:37.613Z,23.14
2019-04-27T12:53:48.037Z,23.09
2019-04-27T12:58:37.599Z,23.42
2019-04-27T13:03:36.369Z,23.14
2019-04-27T13:08:33.617Z,22.64
2019-04-27T13:13:30.587Z,22.47
2019-04-27T13:18:28.134Z,22.65
2019-04-27T13:23:25.622Z,22.74
2019-04-27T13:28:22.628Z,23.23
2019-04-27T13:33:19.694Z,23.31
2019-04-27T13:38:18.184Z,23.05
2019-04-27T13:43:19.991Z,23.00
2019-04-27T13:48:36.417Z,22.85
2019-04-27T13:53:33.604Z,22.91
2019-04-27T13:58:30.622Z,23.09
2019-04-27T14:03:27.619Z,23.59
2019-04-27T14:08:24.615Z,23.82
2019-04-27T14:13:21.639Z,23.85
2019-04-27T14:18:19.087Z,24.02
2019-04-27T14:23:19.020Z,24.07
2019-04-27T14:28:18.311Z,24.00
2019-04-27T14:33:15.502Z,23.86
2019-04-27T14:38:12.483Z,23.62
2019-04-27T14:43:09.483Z,23.48
2019-04-27T14:48:08.199Z,23.23
2019-04-27T14:53:05.478Z,22.88
2019-04-27T14:58:04.530Z,22.87
2019-04-27T15:03:01.664Z,22.72
2019-04-27T15:08:01.762Z,22.60
2019-04-27T15:13:01.700Z,22.57
2019-04-27T15:17:57.529Z,22.66
2019-04-27T15:22:56.950Z,22.71
2019-04-27T15:27:56.721Z,22.62
2019-04-27T15:33:00.447Z,22.71
2019-04-27T15:38:13.774Z,22.77
2019-04-27T15:43:11.296Z,22.67
2019-04-27T15:48:08.512Z,22.68
2019-04-27T15:53:09.890Z,22.62
2019-04-27T15:58:04.478Z,22.76
2019-04-27T16:03:01.576Z,22.73
2019-04-27T16:08:05.268Z,22.62
2019-04-27T16:13:06.331Z,22.48
2019-04-27T16:17:58.599Z,22.56
2019-04-27T16:22:56.644Z,22.45
2019-04-27T16:27:54.668Z,22.37
2019-04-27T16:32:51.763Z,22.16
2019-04-27T16:38:00.007Z,22.08
2019-04-27T16:42:58.417Z,21.94
2019-04-27T16:47:56.665Z,21.86
2019-04-27T16:52:59.174Z,21.57
2019-04-27T16:57:53.217Z,21.47
2019-04-27T17:02:50.247Z,21.35
2019-04-27T17:07:47.643Z,21.24
2019-04-27T17:12:46.041Z,21.07
2019-04-27T17:17:47.118Z,20.53
2019-04-27T17:22:45.582Z,20.29
2019-04-27T17:27:44.593Z,19.78
2019-04-27T17:32:51.071Z,19.62
2019-04-27T17:37:48.898Z,19.16
2019-04-27T17:42:49.421Z,18.79
2019-04-27T17:47:48.104Z,18.53
2019-04-27T17:52:48.476Z,18.40
2019-04-27T17:57:44.097Z,18.14
2019-04-27T18:02:42.522Z,18.02
2019-04-27T18:07:44.076Z,17.97
2019-04-27T18:12:39.031Z,17.92
2019-04-27T18:17:40.975Z,17.81
2019-04-27T18:22:39.643Z,17.58
2019-04-27T18:27:45.819Z,17.49
2019-04-27T18:32:43.002Z,17.46
2019-04-27T18:37:40.549Z,17.17
2019-04-27T18:42:38.581Z,16.87
2019-04-27T18:47:40.272Z,16.92
2019-04-27T18:52:40.731Z,17.02
2019-04-27T18:57:38.880Z,16.96
2019-04-27T19:02:36.046Z,16.94
2019-04-27T19:07:33.429Z,16.93
2019-04-27T19:12:30.534Z,16.83
2019-04-27T19:17:28.229Z,16.80
2019-04-27T19:22:25.294Z,16.66
2019-04-27T19:27:30.410Z,16.69
2019-04-27T19:32:28.525Z,16.61
2019-04-27T19:37:25.671Z,16.44
2019-04-27T19:42:22.693Z,16.42
2019-04-27T19:47:20.696Z,16.37
2019-04-27T19:52:18.271Z,16.45
2019-04-27T19:57:19.399Z,16.52
2019-04-27T20:02:16.380Z,16.39
2019-04-27T20:07:13.386Z,16.60
2019-04-27T20:12:10.571Z,16.63
2019-04-27T20:17:07.671Z,16.21
2019-04-27T20:22:04.617Z,16.37
2019-04-27T20:27:02.640Z,16.38
2019-04-27T20:32:01.201Z,16.22
2019-04-27T20:36:58.394Z,16.07
2019-04-27T20:41:55.379Z,16.05
2019-04-27T20:46:52.515Z,15.90
2019-04-27T20:51:53.176Z,15.98
2019-04-27T20:56:53.584Z,16.16
2019-04-27T21:01:50.583Z,16.02
2019-04-27T21:06:51.025Z,16.08
2019-04-27T21:11:48.580Z,16.08
2019-04-27T21:16:46.067Z,15.99
2019-04-27T21:21:43.034Z,16.09
2019-04-27T21:26:41.823Z,16.03
2019-04-27T21:31:38.901Z,16.11
2019-04-27T21:36:35.982Z,16.09
2019-04-27T21:41:32.938Z,15.98
2019-04-27T21:46:31.677Z,15.99
2019-04-27T21:51:30.586Z,15.95
2019-04-27T21:56:28.644Z,15.74
2019-04-27T22:01:31.832Z,15.74
2019-04-27T22:06:29.181Z,15.79
2019-04-27T22:11:26.178Z,15.41
2019-04-27T22:16:23.264Z,15.33
2019-04-27T22:21:21.660Z,15.43
2019-04-27T22:26:21.222Z,15.48
2019-04-27T22:31:18.343Z,15.50
2019-04-27T22:36:15.337Z,15.51
2019-04-27T22:41:18.043Z,15.25
2019-04-27T22:46:21.750Z,15.16
2019-04-27T22:51:18.860Z,15.26
2019-04-27T22:56:17.638Z,15.34
2019-04-27T23:01:31.327Z,15.41
2019-04-27T23:06:28.392Z,15.33
2019-04-27T23:11:25.399Z,15.24
2019-04-27T23:16:24.245Z,15.24
2019-04-27T23:21:21.274Z,15.17
2019-04-27T23:26:18.234Z,15.02
2019-04-27T23:31:32.623Z,14.91
2019-04-27T23:36:31.308Z,14.80
2019-04-27T23:41:28.679Z,14.95
2019-04-27T23:46:25.642Z,14.90
2019-04-27T23:51:25.337Z,15.06
2019-04-27T23:56:22.575Z,15.17
